Time;durP1;ratioP1;P1;durP2;ratioP2;P2;SDS_P1;SDS_P2;PMS_P1;PMS_P2;Temp;Humidity;BMP_temperature;BMP_pressure;BME280_temperature;BME280_humidity;BME280_pressure;Samples;Min_cycle;Max_cycle;Signal;HPM_P1;HPM_P2
2022/04/20 01:15:29;;;;;;;2.03;0.73;;;;;;;10.29;43.89;98919.16;5281967;28;20047;-73
2022/04/20 01:19:35;;;;;;;0.70;0.60;;;;;;;10.15;44.66;98921.00;8204102;28;20062;-73
2022/04/20 01:23:38;;;;;;;2.53;0.55;;;;;;;10.03;45.99;98921.97;8203619;28;20641;-73
2022/04/20 01:27:40;;;;;;;5.93;0.60;;;;;;;9.95;45.26;98918.59;8194998;28;20039;-73
2022/04/20 01:31:42;;;;;;;0.63;0.50;;;;;;;9.74;45.56;98911.88;8201270;28;20093;-73
2022/04/20 01:35:43;;;;;;;1.02;0.40;;;;;;;9.64;45.15;98912.81;8199934;28;20047;-73
2022/04/20 01:39:45;;;;;;;0.63;0.50;;;;;;;9.54;45.13;98916.38;8203807;28;20066;-73
2022/04/20 01:43:47;;;;;;;0.65;0.40;;;;;;;9.49;45.66;98923.31;8177868;28;20468;-73
2022/04/20 01:47:48;;;;;;;3.60;0.60;;;;;;;9.43;45.87;98916.44;8193729;28;20062;-73
2022/04/20 01:51:50;;;;;;;0.82;0.45;;;;;;;9.35;46.49;98916.50;8200746;28;20140;-73
2022/04/20 01:55:53;;;;;;;0.90;0.60;;;;;;;9.18;48.95;98913.19;8181967;28;20328;-73
2022/04/20 01:59:54;;;;;;;0.88;0.47;;;;;;;9.04;47.82;98914.97;8209572;28;20158;-73
2022/04/20 02:03:55;;;;;;;3.15;0.60;;;;;;;8.95;47.22;98921.06;8208285;28;20083;-73
2022/04/20 02:07:57;;;;;;;6.22;1.60;;;;;;;8.93;47.46;98912.44;8195525;28;20147;-73
2022/04/20 02:11:58;;;;;;;1.48;0.40;;;;;;;8.85;47.04;98915.97;8206393;28;20347;-73
2022/04/20 02:16:00;;;;;;;2.35;0.50;;;;;;;8.85;45.31;98918.53;8215840;28;20059;-73
2022/04/20 02:20:02;;;;;;;0.52;0.52;;;;;;;8.94;45.83;98926.25;8217669;28;20467;-73
2022/04/20 02:24:04;;;;;;;1.55;0.50;;;;;;;8.91;45.29;98923.69;8215945;28;20057;-72
2022/04/20 02:28:06;;;;;;;0.93;0.60;;;;;;;8.94;45.00;98923.66;8212694;28;20050;-74
2022/04/20 02:32:08;;;;;;;1.55;0.50;;;;;;;8.90;45.82;98927.13;8209626;28;20193;-73
2022/04/20 02:36:11;;;;;;;1.13;0.70;;;;;;;8.81;46.02;98925.47;8211661;28;20442;-73
2022/04/20 02:40:12;;;;;;;1.67;0.60;;;;;;;8.74;45.55;98919.44;8216533;28;20587;-73
2022/04/20 02:44:14;;;;;;;1.23;0.98;;;;;;;8.69;46.41;98923.78;8217980;28;20047;-74
2022/04/20 02:48:16;;;;;;;7.90;3.88;;;;;;;8.54;46.60;98929.03;8191878;28;20078;-74
2022/04/20 02:52:17;;;;;;;13.07;5.88;;;;;;;8.46;46.79;98934.25;8217088;28;20767;-74
2022/04/20 02:56:19;;;;;;;10.98;6.18;;;;;;;8.32;47.78;98928.22;8218045;28;20458;-73
2022/04/20 03:00:20;;;;;;;6.00;3.58;;;;;;;8.27;47.79;98922.19;8209410;28;20075;-73
2022/04/20 03:04:22;;;;;;;5.18;2.45;;;;;;;8.25;47.83;98926.47;8213453;28;20074;-74
2022/04/20 03:08:24;;;;;;;2.47;1.10;;;;;;;8.24;47.16;98922.19;8189795;28;20081;-73
2022/04/20 03:12:26;;;;;;;2.00;1.15;;;;;;;8.27;47.10;98921.34;8194981;28;20047;-74
2022/04/20 03:16:27;;;;;;;1.38;1.00;;;;;;;8.27;47.55;98921.34;8208601;28;20360;-74
2022/04/20 03:20:29;;;;;;;1.20;0.73;;;;;;;8.23;48.39;98928.22;8195248;28;20187;-73
2022/04/20 03:24:30;;;;;;;1.30;0.80;;;;;;;8.12;47.83;98927.41;8210519;28;20062;-74
2022/04/20 03:28:32;;;;;;;1.23;0.70;;;;;;;8.11;47.93;98931.72;8211685;28;20137;-73
2022/04/20 03:32:35;;;;;;;1.08;0.80;;;;;;;8.02;47.82;98928.25;8205812;28;20074;-74
2022/04/20 03:36:37;;;;;;;2.55;0.70;;;;;;;7.99;48.19;98936.03;8190565;28;20041;-74
2022/04/20 03:40:38;;;;;;;0.45;0.45;;;;;;;7.93;48.51;98942.09;8208937;28;20038;-73
2022/04/20 03:44:40;;;;;;;2.83;0.70;;;;;;;7.85;49.25;98934.31;8207250;28;20386;-73
2022/04/20 03:48:43;;;;;;;1.27;0.77;;;;;;;7.86;48.91;98933.47;8199980;28;20102;-73
2022/04/20 03:52:44;;;;;;;0.52;0.52;;;;;;;7.91;48.54;98948.97;8177210;28;20047;-73
2022/04/20 03:57:04;;;;;;;3.38;0.50;;;;;;;7.99;47.05;98951.53;8208642;28;20042;-73
2022/04/20 04:01:05;;;;;;;0.47;0.47;;;;;;;8.06;47.19;98948.06;8208062;28;20371;-73
2022/04/20 04:05:07;;;;;;;2.60;0.52;;;;;;;8.06;46.78;98948.94;8206424;28;21340;-73
2022/04/20 04:09:09;;;;;;;1.27;0.70;;;;;;;8.09;47.52;98948.09;8187388;28;20133;-73
2022/04/20 04:13:11;;;;;;;0.85;0.60;;;;;;;8.08;47.55;98948.97;8208753;28;20053;-73
2022/04/20 04:17:13;;;;;;;0.80;0.60;;;;;;;8.11;48.09;98947.22;8204614;28;20104;-73
2022/04/20 04:21:14;;;;;;;1.40;0.50;;;;;;;8.12;48.21;98942.91;8204362;28;20082;-73
2022/04/20 04:25:16;;;;;;;0.70;0.70;;;;;;;8.09;48.48;98941.19;8188958;28;20074;-73
2022/04/20 04:29:18;;;;;;;2.45;0.63;;;;;;;8.05;48.45;98947.22;8200585;28;20051;-73
2022/04/20 04:33:19;;;;;;;1.67;0.60;;;;;;;8.05;48.69;98948.94;8203136;28;20610;-74
2022/04/20 04:37:21;;;;;;;1.58;0.50;;;;;;;8.05;47.64;98947.22;8197980;28;20043;-74
2022/04/20 04:41:22;;;;;;;1.52;0.70;;;;;;;8.05;49.16;98957.56;8188889;28;20808;-72
2022/04/20 04:49:44;;;;;;;2.83;0.50;;;;;;;8.07;48.39;98950.66;8176514;28;20055;-73
2022/04/20 04:53:45;;;;;;;5.03;0.75;;;;;;;8.14;48.38;98956.69;8192856;28;20122;-72
2022/04/20 04:57:47;;;;;;;1.45;0.80;;;;;;;8.18;47.52;98959.28;8207623;28;20422;-73
2022/04/20 05:01:48;;;;;;;0.60;0.60;;;;;;;8.25;47.14;98967.88;8203554;28;20659;-74
2022/04/20 05:05:50;;;;;;;2.75;0.70;;;;;;;8.34;47.05;98985.13;8208283;28;20098;-74
2022/04/20 05:09:52;;;;;;;4.45;1.02;;;;;;;8.42;46.80;98978.22;8210550;28;20066;-72
2022/04/20 05:13:54;;;;;;;0.60;0.50;;;;;;;8.51;46.47;98982.50;8208856;28;20051;-74
2022/04/20 05:17:55;;;;;;;0.82;0.60;;;;;;;8.61;45.71;98982.47;8175919;28;20363;-73
2022/04/20 05:21:57;;;;;;;1.70;0.73;;;;;;;8.68;45.96;98975.56;8185659;28;20157;-74
2022/04/20 05:25:58;;;;;;;1.02;0.57;;;;;;;8.80;46.07;98972.94;8182371;28;20047;-73
2022/04/20 05:30:00;;;;;;;0.50;0.50;;;;;;;8.90;45.95;98974.59;8183727;28;20122;-73
2022/04/20 05:34:02;;;;;;;1.25;0.73;;;;;;;8.96;45.66;98973.69;8178540;28;20098;-74
2022/04/20 05:42:35;;;;;;;1.95;0.50;;;;;;;9.07;45.73;98980.56;8129917;28;20146;-73
2022/04/20 05:46:41;;;;;;;3.85;1.45;;;;;;;9.19;45.48;98973.59;8196659;28;20397;-72
2022/04/20 05:50:43;;;;;;;3.55;0.70;;;;;;;9.48;45.29;98979.44;8208120;28;20047;-73
2022/04/20 05:54:46;;;;;;;0.60;0.60;;;;;;;9.85;44.16;98977.44;8207718;28;20053;-74
2022/04/20 05:58:50;;;;;;;2.65;0.60;;;;;;;10.03;43.34;98976.44;8202525;28;20370;-74
2022/04/20 06:02:54;;;;;;;2.80;0.50;;;;;;;10.06;43.19;98978.16;8188077;28;20146;-72
2022/04/20 06:06:55;;;;;;;2.25;1.02;;;;;;;10.22;43.19;98985.78;8212082;28;20062;-75
2022/04/20 06:10:59;;;;;;;3.33;0.80;;;;;;;10.31;42.57;98982.25;8211687;28;20527;-74
2022/04/20 06:15:01;;;;;;;2.25;0.70;;;;;;;10.40;42.82;98986.50;8190782;28;20075;-75
2022/04/20 06:19:02;;;;;;;1.55;0.50;;;;;;;10.56;42.71;98981.13;8210779;28;20703;-74
2022/04/20 06:23:04;;;;;;;1.17;0.60;;;;;;;10.76;42.46;98977.44;8211291;28;20642;-73
2022/04/20 06:27:07;;;;;;;1.23;0.63;;;;;;;10.89;41.77;98982.47;8191495;28;20153;-74
2022/04/20 06:31:09;;;;;;;1.45;0.45;;;;;;;10.98;41.78;98972.84;8204835;28;20432;-74
2022/04/20 06:35:11;;;;;;;0.67;0.67;;;;;;;11.06;41.76;98974.47;8211670;28;20051;-74
2022/04/20 06:39:12;;;;;;;1.00;0.50;;;;;;;11.21;41.24;98981.19;8209169;28;20046;-74
2022/04/20 06:43:14;;;;;;;2.03;0.52;;;;;;;11.27;40.05;98982.84;8207522;28;20066;-74
2022/04/20 06:47:16;;;;;;;1.08;0.60;;;;;;;11.43;40.34;98985.22;8205184;28;20380;-77
2022/04/20 06:51:18;;;;;;;0.50;0.50;;;;;;;11.58;40.54;98988.47;8216621;28;20335;-75
2022/04/20 06:59:39;;;;;;;1.35;0.50;;;;;;;11.79;39.66;98988.16;8197442;28;20069;-76
2022/04/20 07:03:41;;;;;;;4.97;0.65;;;;;;;11.96;38.53;98990.50;8193534;28;20147;-75
2022/04/20 07:07:42;;;;;;;2.65;0.63;;;;;;;12.14;38.81;98986.75;8210798;28;20047;-74
2022/04/20 07:11:58;;;;;;;5.97;0.73;;;;;;;12.34;38.94;98980.28;8213094;28;20129;-75
2022/04/20 07:16:00;;;;;;;0.60;0.60;;;;;;;12.52;38.24;98984.28;8207164;28;20054;-75
2022/04/20 07:20:02;;;;;;;0.75;0.65;;;;;;;12.61;36.75;98986.75;8213528;28;20137;-75
2022/04/20 07:24:04;;;;;;;;;;;;;;;12.66;37.50;98990.09;8205639;28;20090;-75
2022/04/20 07:28:06;;;;;;;1.73;0.43;;;;;;;12.83;37.90;98991.53;8208765;28;20613;-75
2022/04/20 07:32:08;;;;;;;2.63;0.60;;;;;;;13.03;37.57;98989.38;8192120;28;21287;-76
2022/04/20 07:36:10;;;;;;;2.17;0.50;;;;;;;13.14;35.74;98995.22;8213616;28;20052;-74
2022/04/20 07:40:14;;;;;;;1.20;0.60;;;;;;;13.25;36.06;99000.22;8193143;28;20054;-75
2022/04/20 07:44:16;;;;;;;0.98;0.57;;;;;;;13.34;35.30;98991.38;8189538;28;20149;-75
2022/04/20 07:48:18;;;;;;;2.67;0.60;;;;;;;13.38;35.03;99000.84;8182962;28;20083;-75
2022/04/20 07:52:20;;;;;;;0.90;0.57;;;;;;;13.64;34.07;98995.88;8206990;28;20050;-75
2022/04/20 07:56:21;;;;;;;0.77;0.40;;;;;;;13.96;33.99;98991.66;8192471;28;20396;-74
2022/04/20 08:00:24;;;;;;;2.80;0.50;;;;;;;13.94;33.84;98983.00;8201345;28;20081;-74
2022/04/20 08:04:25;;;;;;;2.38;0.50;;;;;;;14.06;33.93;98980.94;8193067;28;20446;-74
2022/04/20 08:08:26;;;;;;;0.93;0.67;;;;;;;14.29;33.14;98982.13;8212571;28;20065;-74
2022/04/20 08:12:34;;;;;;;1.02;0.30;;;;;;;14.41;32.21;98989.63;8209226;28;20058;-75
2022/04/20 08:16:40;;;;;;;0.73;0.43;;;;;;;14.52;32.57;98985.84;8187527;28;20066;-75
2022/04/20 08:20:42;;;;;;;3.85;0.88;;;;;;;14.66;32.26;98982.00;8211099;28;20327;-75
2022/04/20 08:24:43;;;;;;;4.05;0.43;;;;;;;14.78;31.23;98982.53;8215792;28;20054;-75
2022/04/20 08:28:45;;;;;;;1.50;0.40;;;;;;;14.89;31.09;98987.44;8220206;28;20043;-75
2022/04/20 08:32:47;;;;;;;0.52;0.52;;;;;;;14.81;30.40;98982.44;8200890;28;20058;-75
2022/04/20 08:36:48;;;;;;;0.80;0.50;;;;;;;14.71;30.80;98980.13;8215959;28;20459;-75
2022/04/20 08:40:53;;;;;;;0.63;0.50;;;;;;;14.64;31.15;98970.75;8201995;28;20137;-74
2022/04/20 08:44:56;;;;;;;0.47;0.40;;;;;;;14.65;31.02;98977.69;8209303;28;20074;-75
2022/04/20 08:48:58;;;;;;;1.85;0.43;;;;;;;14.65;29.76;98977.69;8214699;28;20054;-74
2022/04/20 08:53:01;;;;;;;10.67;1.27;;;;;;;14.63;30.76;98985.56;8218129;28;20555;-75
2022/04/20 08:57:15;;;;;;;5.43;1.02;;;;;;;14.62;30.16;98976.03;8179484;28;20503;-75
2022/04/20 09:01:18;;;;;;;3.08;0.95;;;;;;;14.88;30.49;98982.28;8204323;28;20089;-75
2022/04/20 09:05:22;;;;;;;3.03;0.60;;;;;;;15.07;30.00;98984.31;8209489;28;20068;-75
2022/04/20 09:09:29;;;;;;;0.90;0.60;;;;;;;15.27;29.63;98981.13;8191367;28;20767;-74
2022/04/20 09:13:33;;;;;;;2.75;0.80;;;;;;;15.43;30.85;98968.41;8219912;28;20113;-75
2022/04/20 09:17:44;;;;;;;1.65;0.68;;;;;;;15.85;30.48;98973.25;8201366;28;20078;-75
2022/04/20 09:21:46;;;;;;;5.10;1.23;;;;;;;16.13;30.49;98965.31;8180274;28;20048;-74
2022/04/20 09:25:49;;;;;;;3.65;0.68;;;;;;;16.42;29.19;98962.56;8167676;28;20065;-75
2022/04/20 09:29:55;;;;;;;1.33;0.60;;;;;;;16.51;30.51;98953.50;8177018;28;20042;-75
2022/04/20 09:33:57;;;;;;;1.48;0.63;;;;;;;16.55;29.46;98944.66;8202170;28;20101;-75
2022/04/20 09:38:07;;;;;;;5.47;0.80;;;;;;;16.61;30.42;98947.91;8182417;28;20142;-75
2022/04/20 09:42:09;;;;;;;2.17;0.90;;;;;;;16.77;29.39;98944.75;8189288;28;20174;-74
2022/04/20 09:50:31;;;;;;;2.20;0.80;;;;;;;16.82;29.63;98937.56;8207178;28;20047;-75
2022/04/20 09:54:36;;;;;;;4.35;0.75;;;;;;;16.94;29.80;98946.75;8202330;28;20359;-75
2022/04/20 09:58:39;;;;;;;2.60;0.85;;;;;;;17.00;29.61;98936.88;8206540;28;20042;-75
2022/04/20 10:02:50;;;;;;;8.57;0.60;;;;;;;16.88;29.14;98947.84;8178765;28;20050;-73
2022/04/20 10:06:52;;;;;;;5.45;0.93;;;;;;;16.66;29.08;98945.09;8190426;28;20047;-73
2022/04/20 10:10:55;;;;;;;5.37;0.70;;;;;;;16.50;29.42;98950.03;8175618;28;20055;-73
2022/04/20 10:19:26;;;;;;;2.20;0.50;;;;;;;16.56;29.68;98935.88;8202555;28;20065;-73
2022/04/20 10:23:31;;;;;;;0.57;0.57;;;;;;;16.85;28.99;98937.44;8202174;28;20134;-73
2022/04/20 10:27:57;;;;;;;3.92;0.93;;;;;;;17.01;29.09;98948.22;8203556;28;20042;-73
2022/04/20 10:32:10;;;;;;;1.30;0.70;;;;;;;17.22;28.60;98932.53;8212616;28;20097;-73
2022/04/20 10:36:13;;;;;;;;;;;;;;;17.31;28.62;98943.59;8205993;28;20058;-73
2022/04/20 10:40:16;;;;;;;1.77;0.90;;;;;;;17.42;28.46;98944.91;8175574;28;20491;-73
2022/04/20 10:44:51;;;;;;;5.47;1.05;;;;;;;17.61;28.16;98931.88;8199257;28;20047;-73
2022/04/20 10:49:07;;;;;;;0.80;0.63;;;;;;;17.65;27.33;98919.47;8190751;28;20066;-74
2022/04/20 10:53:22;;;;;;;1.65;1.00;;;;;;;17.63;28.33;98918.69;8203447;28;20047;-74
2022/04/20 10:57:38;;;;;;;4.07;0.90;;;;;;;17.79;27.70;98932.94;8204146;28;20062;-73
2022/04/20 11:02:02;;;;;;;2.13;0.73;;;;;;;17.66;27.48;98910.69;8187658;28;20379;-74
2022/04/20 11:06:03;;;;;;;7.30;1.10;;;;;;;17.61;29.05;98907.41;8203179;28;20050;-74
2022/04/20 11:10:06;;;;;;;5.93;1.10;;;;;;;17.63;28.05;98905.56;8202329;28;20103;-74
2022/04/20 11:18:44;;;;;;;0.80;0.80;;;;;;;17.88;27.40;98882.66;8166224;29;20048;-74
2022/04/20 11:22:45;;;;;;;2.25;0.75;;;;;;;18.18;27.25;98896.25;8172686;29;20635;-74
2022/04/20 11:26:54;;;;;;;1.90;0.70;;;;;;;18.23;26.94;98903.94;8170070;29;20050;-74
2022/04/20 11:30:55;;;;;;;3.80;0.70;;;;;;;18.32;28.07;98898.28;8169596;28;20764;-73
2022/04/20 11:35:05;;;;;;;3.58;1.00;;;;;;;18.31;26.84;98899.19;8186423;29;20585;-73
2022/04/20 11:39:09;;;;;;;3.00;1.00;;;;;;;18.15;26.95;98890.28;8186562;29;20635;-74
2022/04/20 11:43:13;;;;;;;2.63;0.90;;;;;;;18.27;26.77;98895.84;8185143;29;20465;-74
2022/04/20 11:47:42;;;;;;;2.78;1.50;;;;;;;18.04;25.95;98903.88;8179371;29;20984;-74
2022/04/20 11:51:57;;;;;;;1.13;0.70;;;;;;;17.75;26.69;98881.44;8185912;29;20134;-74
2022/04/20 11:56:01;;;;;;;1.30;0.60;;;;;;;17.77;26.57;98895.34;8179845;29;20344;-74
2022/04/20 12:00:04;;;;;;;2.22;0.80;;;;;;;17.77;27.25;98871.72;8186202;29;20086;-73
2022/04/20 12:04:16;;;;;;;3.15;1.00;;;;;;;18.22;27.96;98878.56;8184475;29;20047;-74
2022/04/20 12:08:18;;;;;;;3.15;0.95;;;;;;;18.31;26.30;98870.28;8181468;29;20094;-74
2022/04/20 12:12:19;;;;;;;2.40;0.80;;;;;;;18.48;25.82;98856.38;8167753;29;20633;-74
2022/04/20 12:16:23;;;;;;;2.33;1.08;;;;;;;18.71;26.26;98864.97;8189839;28;20166;-74
2022/04/20 12:20:25;;;;;;;1.35;0.65;;;;;;;18.85;26.01;98863.47;8196081;28;20039;-75
2022/04/20 12:24:27;;;;;;;;;;;;;;;18.76;24.96;98850.75;8188096;28;20078;-74
2022/04/20 12:28:43;;;;;;;1.50;0.47;;;;;;;18.91;25.81;98848.28;8207698;28;20065;-74
2022/04/20 12:32:46;;;;;;;3.55;0.52;;;;;;;19.04;26.18;98837.19;8173289;28;20142;-75
2022/04/20 12:37:08;;;;;;;3.17;0.77;;;;;;;19.14;25.67;98841.06;8203280;28;20429;-74
2022/04/20 12:41:47;;;;;;;3.27;0.60;;;;;;;19.18;26.16;98829.44;8198255;28;20428;-74
2022/04/20 12:45:48;;;;;;;5.50;0.60;;;;;;;19.36;25.00;98822.44;8185055;28;20443;-73
2022/04/20 12:49:53;;;;;;;4.47;0.68;;;;;;;19.40;26.13;98808.22;8183868;28;20030;-73
2022/04/20 12:53:55;;;;;;;4.15;0.70;;;;;;;19.51;25.04;98813.78;8189651;28;20110;-74
2022/04/20 13:02:17;;;;;;;4.78;1.00;;;;;;;19.25;25.12;98809.81;8171543;28;20054;-73
2022/04/20 13:06:20;;;;;;;2.25;0.70;;;;;;;19.20;25.28;98817.06;8171430;28;20078;-73
2022/04/20 13:10:22;;;;;;;6.28;0.60;;;;;;;19.25;25.48;98812.44;8174392;28;20835;-73
2022/04/20 13:14:23;;;;;;;;;;;;;;;19.29;25.01;98806.94;8178524;28;20047;-73
2022/04/20 13:18:24;;;;;;;2.85;1.10;;;;;;;19.30;25.10;98803.38;8199154;28;20045;-73
2022/04/20 13:22:26;;;;;;;1.17;0.80;;;;;;;19.26;25.05;98811.53;8204054;28;20081;-73
2022/04/20 13:30:47;;;;;;;9.40;1.20;;;;;;;19.14;25.43;98799.78;8201896;28;20901;-73
2022/04/20 13:34:49;;;;;;;2.70;0.95;;;;;;;19.05;24.80;98807.31;8213254;28;20043;-73
2022/04/20 13:38:50;;;;;;;1.88;0.95;;;;;;;18.86;25.67;98802.06;8210859;28;20082;-73
2022/04/20 13:42:54;;;;;;;2.70;0.80;;;;;;;18.81;25.99;98806.66;8176059;28;20077;-73
2022/04/20 13:46:58;;;;;;;5.07;1.30;;;;;;;18.84;26.24;98794.22;8192486;28;20334;-73
2022/04/20 13:50:59;;;;;;;2.00;0.88;;;;;;;19.07;26.11;98806.31;8216734;28;20215;-73
2022/04/20 13:55:01;;;;;;;4.63;0.70;;;;;;;18.95;25.25;98809.50;8216273;28;20505;-73
2022/04/20 13:59:03;;;;;;;1.77;0.80;;;;;;;18.94;25.69;98807.81;8205191;28;20599;-73
2022/04/20 14:03:05;;;;;;;1.92;0.63;;;;;;;19.02;26.18;98810.91;8211895;28;20054;-73
2022/04/20 14:07:07;;;;;;;0.88;0.60;;;;;;;18.90;25.42;98799.22;8215029;28;20062;-74
2022/04/20 14:11:08;;;;;;;0.63;0.57;;;;;;;18.91;26.16;98793.03;8223185;28;20043;-73
2022/04/20 14:15:10;;;;;;;1.52;0.70;;;;;;;18.97;26.04;98791.88;8212509;28;20065;-74
2022/04/20 14:19:11;;;;;;;1.45;0.60;;;;;;;19.11;25.33;98802.59;8203151;28;20077;-75
2022/04/20 14:23:13;;;;;;;3.00;0.80;;;;;;;19.05;25.11;98802.91;8193372;28;20047;-74
2022/04/20 14:32:09;;;;;;;2.15;0.73;;;;;;;18.75;25.72;98799.09;8186694;28;20051;-74
2022/04/20 14:36:11;;;;;;;1.42;0.70;;;;;;;18.82;25.85;98793.44;8190697;28;20408;-74
2022/04/20 14:40:15;;;;;;;2.00;0.95;;;;;;;18.84;24.67;98786.31;8187598;28;20122;-75
2022/04/20 14:44:17;;;;;;;2.28;0.82;;;;;;;18.82;25.52;98777.66;8190028;28;20074;-74
2022/04/20 14:48:18;;;;;;;1.48;0.70;;;;;;;18.87;25.01;98777.47;8189939;28;20130;-74
2022/04/20 14:52:20;;;;;;;1.77;0.80;;;;;;;18.76;24.81;98782.38;8160871;28;20585;-74
2022/04/20 14:56:21;;;;;;;1.17;0.80;;;;;;;18.77;24.70;98776.19;8204471;28;20074;-75
2022/04/20 15:00:23;;;;;;;1.10;0.80;;;;;;;18.99;25.55;98782.13;8198926;28;20837;-74
2022/04/20 15:04:25;;;;;;;2.30;0.75;;;;;;;19.17;24.89;98778.59;8199659;28;20304;-75
2022/04/20 15:08:27;;;;;;;2.72;0.80;;;;;;;19.30;25.13;98770.94;8195938;28;20054;-75
2022/04/20 15:12:29;;;;;;;0.63;0.55;;;;;;;19.18;23.97;98780.28;8175407;28;20070;-74
2022/04/20 15:16:31;;;;;;;1.70;0.65;;;;;;;19.00;24.21;98789.09;8189227;28;20047;-74
2022/04/20 15:20:32;;;;;;;11.77;1.00;;;;;;;19.00;24.32;98787.31;8190592;28;20047;-74
2022/04/20 15:24:34;;;;;;;3.77;0.73;;;;;;;19.19;24.93;98775.88;8190413;29;20047;-74
2022/04/20 15:28:35;;;;;;;1.95;0.70;;;;;;;19.36;24.31;98782.94;8190537;29;20629;-74
2022/04/20 15:32:39;;;;;;;1.30;1.00;;;;;;;19.31;23.60;98785.81;8186565;29;20051;-74
2022/04/20 15:36:40;;;;;;;1.75;0.63;;;;;;;19.30;24.38;98771.78;8185933;29;20425;-74
2022/04/20 15:40:41;;;;;;;4.20;0.90;;;;;;;19.36;24.41;98788.22;8170176;29;20773;-74
2022/04/20 15:44:43;;;;;;;3.15;0.80;;;;;;;19.35;23.44;98781.25;8185990;28;20340;-75
2022/04/20 15:48:45;;;;;;;3.70;0.90;;;;;;;19.38;23.95;98783.72;8184456;29;20430;-74
2022/04/20 15:52:46;;;;;;;2.27;0.70;;;;;;;19.24;23.55;98774.75;8172218;29;20061;-74
2022/04/20 16:01:08;;;;;;;3.25;0.80;;;;;;;19.10;24.03;98778.97;8183446;29;20065;-74
2022/04/20 16:05:10;;;;;;;3.15;0.80;;;;;;;19.21;23.88;98776.66;8186725;29;20074;-74
2022/04/20 16:09:12;;;;;;;5.22;0.88;;;;;;;19.28;23.88;98770.16;8167522;29;20050;-74
2022/04/20 16:13:16;;;;;;;4.33;1.67;;;;;;;19.32;23.43;98777.84;8187364;28;20070;-74
2022/04/20 16:17:17;;;;;;;1.90;1.20;;;;;;;19.27;23.64;98779.84;8210673;28;21153;-74
2022/04/20 16:21:19;;;;;;;1.65;0.90;;;;;;;19.33;23.25;98769.00;8212029;28;20049;-74
2022/04/20 16:25:20;;;;;;;2.25;0.60;;;;;;;19.32;23.46;98769.09;8234823;28;20069;-75
2022/04/20 16:29:22;;;;;;;2.88;0.60;;;;;;;19.09;23.01;98761.47;8210787;28;20039;-74
2022/04/20 16:33:23;;;;;;;4.97;0.70;;;;;;;18.70;24.02;98767.75;8204734;28;20050;-74
2022/04/20 16:37:25;;;;;;;3.27;0.77;;;;;;;18.33;24.24;98760.69;8205360;28;20499;-74
2022/04/20 16:41:27;;;;;;;0.52;0.52;;;;;;;18.07;25.03;98757.44;8224891;28;20084;-74
2022/04/20 16:45:30;;;;;;;1.08;0.80;;;;;;;17.66;24.51;98758.41;8217633;28;20683;-74
2022/04/20 16:49:31;;;;;;;2.42;0.80;;;;;;;17.31;25.71;98766.00;8212541;28;20568;-74
2022/04/20 16:53:33;;;;;;;1.77;0.83;;;;;;;17.10;26.51;98759.03;8221738;28;20057;-74
2022/04/20 16:57:36;;;;;;;0.90;0.80;;;;;;;16.92;26.85;98765.88;8215836;28;20062;-74
2022/04/20 17:01:38;;;;;;;4.13;3.10;;;;;;;16.65;27.13;98757.28;8218832;28;20062;-74
2022/04/20 17:05:39;;;;;;;5.25;2.78;;;;;;;16.48;26.82;98744.81;8215246;28;20046;-74
2022/04/20 17:09:42;;;;;;;2.00;1.33;;;;;;;16.32;26.81;98741.94;8217739;28;20070;-74
2022/04/20 17:13:44;;;;;;;5.07;1.13;;;;;;;16.22;27.16;98740.59;8220004;28;20057;-75
2022/04/20 17:17:45;;;;;;;5.28;0.93;;;;;;;16.10;27.75;98738.41;8199531;28;20526;-74
2022/04/20 17:30:27;;;;;;;3.65;0.98;;;;;;;15.55;27.51;98753.47;8200624;28;20053;-74
2022/04/20 17:34:28;;;;;;;1.67;0.77;;;;;;;15.41;28.19;98747.84;8202956;28;20048;-74
2022/04/20 17:38:30;;;;;;;0.90;0.80;;;;;;;15.27;27.86;98756.19;8182393;28;20075;-74
2022/04/20 17:42:31;;;;;;;1.10;1.00;;;;;;;15.25;28.57;98757.97;8183788;28;20734;-74
2022/04/20 17:46:33;;;;;;;2.27;0.90;;;;;;;15.15;29.34;98753.97;8195656;28;20679;-74
2022/04/20 17:50:38;;;;;;;2.55;1.10;;;;;;;15.00;29.00;98752.69;8185594;28;20058;-72
2022/04/20 17:54:40;;;;;;;1.35;1.25;;;;;;;14.89;28.05;98740.88;8191746;28;20154;-74
2022/04/20 17:58:42;;;;;;;1.27;0.88;;;;;;;14.79;28.58;98742.94;8181596;28;20074;-74
2022/04/20 18:02:43;;;;;;;0.77;0.70;;;;;;;14.71;28.33;98744.94;8205006;28;20142;-74
2022/04/20 18:06:45;;;;;;;2.50;0.70;;;;;;;14.59;27.72;98745.34;8187073;28;20122;-74
2022/04/20 18:10:47;;;;;;;2.47;0.67;;;;;;;14.54;27.93;98755.91;8192496;28;20041;-74
2022/04/20 18:14:48;;;;;;;1.17;0.60;;;;;;;14.49;28.20;98757.81;8183342;28;20082;-74
2022/04/20 18:18:50;;;;;;;1.27;1.00;;;;;;;14.38;28.51;98758.13;8177616;28;20047;-74
2022/04/20 18:22:51;;;;;;;0.93;0.75;;;;;;;14.30;28.56;98762.69;8201681;28;20097;-74
2022/04/20 18:26:53;;;;;;;1.27;0.70;;;;;;;14.20;29.01;98758.66;8188798;28;20523;-73
2022/04/20 18:30:54;;;;;;;0.60;0.60;;;;;;;14.12;30.08;98750.19;8194710;28;20071;-74
2022/04/20 18:34:56;;;;;;;2.35;0.50;;;;;;;13.96;29.92;98761.94;8204727;28;20129;-73
2022/04/20 18:38:59;;;;;;;0.60;0.60;;;;;;;13.89;29.85;98763.88;8202674;28;20055;-73
2022/04/20 18:43:01;;;;;;;0.90;0.50;;;;;;;13.75;28.85;98759.03;8194589;28;20519;-73
2022/04/20 18:47:03;;;;;;;0.68;0.50;;;;;;;13.68;29.35;98767.09;8180696;28;20062;-73
2022/04/20 18:51:04;;;;;;;2.72;0.60;;;;;;;13.58;30.90;98762.09;8198177;28;20040;-73
2022/04/20 18:59:46;;;;;;;0.90;0.55;;;;;;;13.30;30.68;98775.03;8107088;29;20080;-73
2022/04/20 19:03:48;;;;;;;0.90;0.50;;;;;;;13.20;30.27;98778.75;8117693;28;20146;-73
2022/04/20 19:07:49;;;;;;;;;;;;;;;13.14;30.68;98780.63;8204376;28;20508;-75
2022/04/20 19:11:51;;;;;;;0.50;0.50;;;;;;;13.00;30.79;98789.63;8208568;28;19936;-73
2022/04/20 19:15:52;;;;;;;1.85;0.60;;;;;;;12.96;31.19;98784.53;8195598;28;20760;-74
2022/04/20 19:19:54;;;;;;;3.20;0.60;;;;;;;12.87;31.52;98788.19;8193664;28;20138;-73
2022/04/20 19:23:55;;;;;;;1.15;0.60;;;;;;;12.77;32.29;98788.47;8189402;28;20082;-73
2022/04/20 19:27:58;;;;;;;1.00;0.70;;;;;;;12.67;33.85;98793.00;8207763;28;20043;-73
2022/04/20 19:31:59;;;;;;;;;;;;;;;12.49;33.41;98794.25;8184520;28;20055;-73
2022/04/20 19:36:01;;;;;;;1.00;0.60;;;;;;;12.32;33.78;98794.63;8202415;28;20386;-73
2022/04/20 19:40:03;;;;;;;0.95;0.63;;;;;;;12.16;34.30;98793.22;8190525;28;20038;-72
2022/04/20 19:44:04;;;;;;;2.93;0.53;;;;;;;12.07;34.77;98796.03;8174227;28;20618;-73
2022/04/20 19:48:06;;;;;;;1.53;0.70;;;;;;;11.98;35.34;98797.06;8189666;28;20059;-73
2022/04/20 19:52:10;;;;;;;0.60;0.60;;;;;;;11.82;35.89;98795.63;8186098;28;20043;-73
2022/04/20 19:56:12;;;;;;;2.50;0.75;;;;;;;11.67;37.53;98803.69;8190268;28;20511;-73
2022/04/20 20:00:14;;;;;;;0.80;0.60;;;;;;;11.39;38.09;98806.78;8200137;28;20071;-73
2022/04/20 20:04:16;;;;;;;1.00;0.70;;;;;;;11.26;39.20;98800.06;8183023;28;20143;-73
2022/04/20 20:08:18;;;;;;;1.05;0.50;;;;;;;10.99;39.87;98803.13;8199359;28;20463;-72
2022/04/20 20:12:19;;;;;;;2.65;0.65;;;;;;;10.85;39.71;98803.31;8202108;28;20042;-73
2022/04/20 20:16:25;;;;;;;0.57;0.57;;;;;;;10.65;41.62;98797.56;8197061;28;20061;-73
2022/04/20 20:20:28;;;;;;;2.35;0.60;;;;;;;10.47;43.90;98791.75;8172932;28;20063;-72
2022/04/20 20:33:09;;;;;;;1.08;0.93;;;;;;;9.95;46.96;98796.72;8192520;28;20136;-72
2022/04/20 20:37:11;;;;;;;1.20;0.60;;;;;;;9.71;48.50;98800.44;8157765;28;20058;-73
2022/04/20 20:41:12;;;;;;;0.50;0.50;;;;;;;9.47;48.19;98793.75;8178063;28;20047;-72
2022/04/20 20:45:15;;;;;;;0.60;0.60;;;;;;;9.34;48.37;98798.22;8185014;28;20130;-72
2022/04/20 20:53:37;;;;;;;0.57;0.57;;;;;;;9.02;50.68;98790.69;8192287;28;20138;-72
2022/04/20 20:57:40;;;;;;;3.47;0.60;;;;;;;8.86;51.19;98796.88;8191276;28;20081;-72
2022/04/20 21:01:42;;;;;;;;;;;;;;;8.81;50.04;98784.84;8186528;28;20772;-72
2022/04/20 21:05:46;;;;;;;1.98;0.57;;;;;;;8.86;49.92;98789.09;8193104;28;19927;-73
2022/04/20 21:09:47;;;;;;;1.55;0.65;;;;;;;8.66;52.38;98788.38;8199633;28;20153;-72
2022/04/20 21:13:49;;;;;;;0.60;0.50;;;;;;;8.52;52.75;98792.78;8186898;28;20109;-72
2022/04/20 21:17:50;;;;;;;1.10;0.52;;;;;;;8.36;53.11;98786.81;8195877;28;20061;-72
2022/04/20 21:21:53;;;;;;;1.20;0.60;;;;;;;8.13;53.36;98784.31;8190803;28;20039;-72
2022/04/20 21:25:54;;;;;;;0.73;0.57;;;;;;;7.99;53.78;98784.38;8190069;28;20166;-72
2022/04/20 21:29:57;;;;;;;1.30;0.70;;;;;;;7.86;54.42;98780.97;8192521;28;20053;-72
2022/04/20 21:33:59;;;;;;;2.60;0.55;;;;;;;7.76;55.11;98781.88;8186222;28;20063;-72